Tiempo atmosférico en la estación meteorológica de Tinajo, Las Palmas (275 m.)



Fecha
DESCASC
Temp. máxima en grados centígrados (hora)
DESCASC
Temp. mínima en grados centígrados (hora)
DESCASC
Temp. media en grados centígrados
DESCASC
Racha de viento máxima en m/sg (hora)
DESCASC
Velocidad máxima media en intervalos de 10 minutos(hora)
DESCASC
Precipitaciones diarias en mm
DESCASC
Precipitaciones de 00:00 a 06:00 en mm
DESCASC
Precipitaciones de 06:00 a 12:00 en mm
DESCASC
Precipitaciones de 12:00 a 18:00 en mm
DESCASC
Precipitaciones de 18:00 a 24:00 en mm
DESCASC
14-12-2019 19.1 (12:50) 14 (23:59) 16.6 10.83 (00:10) 6.67 (01:10) 0 0 0 0 0
13-12-2019 17.8 (14:10) 14.6 (04:40) 16.2 16.94 (00:40) 10.28 (01:20) 0 0 0 0 0
12-12-2019 17.8 (12:20) 15 (23:10) 16.4 17.5 (17:50) 11.39 (23:10) 0 0 0 0 0
11-12-2019 18.2 (13:20) 13.9 (00:00) 16.1 13.89 (18:40) 8.61 (23:59) 0 0 0 0 0
10-12-2019 18.8 (12:40) 14.3 (00:00) 16.5 14.17 (16:50) 8.89 (16:50) 0 0 0 0 0
09-12-2019 18.8 (13:10) 13.6 (00:00) 16.2 11.67 (13:50) 7.78 (02:00) 0 0 0 0 0
08-12-2019 18 (13:30) 15 (00:00) 16.5 13.89 (01:00) 8.06 (14:20) 0 0 0 0 0
07-12-2019 18.5 (13:20) 14.3 (00:00) 16.4 13.06 (21:40) 7.5 (23:10) 0.2 0 0 0 0.2
06-12-2019 17.2 (14:10) 13.7 (00:00) 15.5 12.78 (16:40) 8.61 (16:40) 2.8 1.4 1.2 0.2 0
05-12-2019 16.3 (12:10) 13.4 (00:00) 14.8 16.39 (04:00) 11.11 (05:10) 6.4 4.6 1.4 0.2 0.2
04-12-2019 18.9 (13:20) 14.9 (00:00) 16.9 13.06 (17:00) 8.61 (16:00) 3.8 0 0 0 3.8
03-12-2019 18.2 (15:30) 14.9 (00:00) 16.6 14.44 (04:50) 9.72 (03:40) 0 0 0 0 0
02-12-2019 18.3 (13:50) 15.3 (00:00) 16.8 14.17 (21:40) 9.17 (23:20) 0.2 0.2 0 0 0
01-12-2019 19.3 (11:50) 14.9 (00:00) 17.1 11.11 (06:10) 7.22 (14:20) 0.2 0 0 0 0.2
30-11-2019 26.6 (12:20) 16.5 (00:00) 21.6 10 (23:40) 6.67 (23:40) 0 0 0 0 0
29-11-2019 27 (14:00) 15.6 (00:00) 21.3 11.67 (04:30) 8.33 (12:50) 0 0 0 0 0
28-11-2019 21.9 (13:50) 12.9 (00:00) 17.4 9.17 (01:00) 5.28 (15:20) 0 0 0 0 0
27-11-2019 19.6 (12:40) 15.9 (00:00) 17.8 11.11 (04:40) 7.22 (03:00) 0 0 0 0 0
26-11-2019 20.6 (12:40) 15.2 (00:00) 17.9 9.72 (04:50) 6.39 (14:10) 0 0 0 0 0
25-11-2019 19 (12:50) 16 (00:00) 17.5 -- (--) -- (--) -- 0 -- 0 0
24-11-2019 19.2 (13:30) 16 (00:00) 17.6 13.33 (10:10) 8.89 (10:20) 0 0 0 0 0
23-11-2019 -- (--) -- (--) -- -- (--) -- (--) -- -- 0 0 0
22-11-2019 20.9 (13:50) 17.1 (00:00) 19 8.89 (01:40) 6.11 (01:40) 1 1 0 0 0
21-11-2019 -- (--) -- (--) -- -- (--) -- (--) -- 0 0 -- 0
20-11-2019 21.1 (13:20) 12.5 (00:00) 16.8 10.28 (13:40) 7.22 (13:30) 0.4 0 0 0 0.4
19-11-2019 -- (--) -- (--) -- -- (--) -- (--) -- 0.4 0 -- 0
18-11-2019 -- (--) -- (--) -- -- (--) -- (--) -- 0 -- 0 0
17-11-2019 18.3 (13:10) 14.2 (00:00) 16.2 17.22 (01:00) 8.89 (04:00) 0 0 0 0 0
16-11-2019 17.8 (10:50) 14.4 (00:00) 16.1 16.67 (09:40) 9.72 (13:30) 0 0 0 0 0

Gráficas

Temp. máximas Temp. mínimas Temp. medias Precipitaciones Rachas de viento máximas Velocidades máximas media en intervalos de 10 minutos

Datos horarios

Fecha y hora oficial Temperatura (ºC) Velocidad del viento (km/h) Dirección del viento Racha (km/h) Dirección de racha Precipitación (mm) Presión (hPa) Tendencia (hPa) Humedad (%)
2019-12-15 23:00:00 13.2 5 Sudoeste 6 Sudoeste 0 -- -- 85
2019-12-15 22:00:00 13.8 5 Sudoeste 6 Sudoeste 0 -- -- 83
2019-12-15 21:00:00 14.1 2 Oeste 8 Sudoeste 0 -- -- 84
2019-12-15 20:00:00 14.2 5 Sudoeste 6 Sudoeste 0 -- -- 83
2019-12-15 19:00:00 15.5 5 Oeste 16 Oeste 0 -- -- 79
2019-12-15 18:00:00 16.6 12 Noroeste 18 Noroeste 0 -- -- 75
2019-12-15 17:00:00 17.8 12 Noroeste 21 Noroeste 0 -- -- 70
2019-12-15 16:00:00 18.1 4 Norte 19 Oeste 0 -- -- 73
2019-12-15 15:00:00 18.8 12 Noroeste 22 Oeste 0 -- -- 65
2019-12-15 14:00:00 18.8 4 Sur 14 Sudeste 0 -- -- 63
2019-12-15 13:00:00 18.4 5 Nordeste 10 Nordeste 0 -- -- 63
2019-12-15 12:00:00 17.5 5 Norte 9 Norte 0 -- -- 66
2019-12-15 11:00:00 16.7 3 Norte 10 Nordeste 0 -- -- 67
2019-12-15 10:00:00 15.6 3 Sudeste 8 Sudeste 0 -- -- 78
2019-12-15 09:00:00 13 4 Sudeste 6 Sudeste 0 -- -- 91
2019-12-15 08:00:00 10.8 0 Calma 3 Sur 0 -- -- 92
2019-12-15 07:00:00 11.3 3 Sur 5 Sur 0 -- -- 92
2019-12-15 06:00:00 11.8 3 Sur 9 Sur 0 -- -- 93
2019-12-15 05:00:00 11.8 3 Sur 4 Sudoeste 0 -- -- 93
2019-12-15 04:00:00 12.4 2 Sudoeste 4 Sudoeste 0 -- -- 94
2019-12-15 03:00:00 12.4 2 Sudoeste 5 Sudoeste 0 -- -- 93
2019-12-15 02:00:00 12.4 3 Sudoeste 4 Sudoeste 0 -- -- 92
2019-12-15 01:00:00 13.5 2 Oeste 5 Sudoeste 0 -- -- 93
2019-12-15 00:00:00 14 0 Calma 4 Noroeste 0 -- -- 90
2019-12-14 23:00:00 14.8 3 Noroeste 4 Noroeste 0 -- -- 90
2019-12-14 22:00:00 15.2 2 Norte 5 Noroeste 0 -- -- 89
2019-12-14 21:00:00 15.3 2 Norte 13 Norte 0 -- -- 88
2019-12-14 20:00:00 15.7 8 Norte 13 Norte 0 -- -- 86
2019-12-14 19:00:00 16 6 Norte 13 Norte 0 -- -- 84
2019-12-14 18:00:00 16.4 7 Norte 17 Noroeste 0 -- -- 82
2019-12-14 17:00:00 17.1 10 Norte 18 Norte 0 -- -- 78
2019-12-14 16:00:00 18 12 Norte 26 Norte 0 -- -- 74
2019-12-14 15:00:00 18.4 14 Norte 26 Noroeste 0 -- -- 70
2019-12-14 14:00:00 18.6 11 Norte 19 Norte 0 -- -- 69
2019-12-14 13:00:00 19 11 Norte 24 Nordeste 0 -- -- 66
2019-12-14 12:00:00 18.5 11 Norte 20 Norte 0 -- -- 72
2019-12-14 11:00:00 17.8 13 Norte 20 Norte 0 -- -- 76
2019-12-14 10:00:00 17.2 10 Nordeste 19 Norte 0 -- -- 80
2019-12-14 09:00:00 16.2 9 Nordeste 18 Nordeste 0 -- -- 88
2019-12-14 08:00:00 15.6 11 Nordeste 19 Nordeste 0 -- -- 89
2019-12-14 07:00:00 15.2 6 Nordeste 12 Nordeste 0 -- -- 88
2019-12-14 06:00:00 15.1 0 Calma 17 Nordeste 0 -- -- 90
2019-12-14 05:00:00 15.8 13 Nordeste 27 Norte 0 -- -- 89
2019-12-14 04:00:00 15.6 12 Nordeste 30 Nordeste 0 -- -- 84
2019-12-14 03:00:00 15 15 Nordeste 27 Nordeste 0 -- -- 85
2019-12-14 02:00:00 15.4 13 Nordeste 32 Nordeste 0 -- -- 86
2019-12-14 01:00:00 15.9 21 Nordeste 39 Nordeste 0 -- -- 84
2019-12-14 00:00:00 15.9 28 Nordeste 49 Nordeste 0 -- -- 86
2019-12-13 23:00:00 15.9 24 Nordeste 49 Nordeste 0 -- -- 84
2019-12-13 22:00:00 15.9 24 Nordeste 42 Nordeste 0 -- -- 84
2019-12-13 21:00:00 16 22 Nordeste 41 Nordeste 0 -- -- 84
2019-12-13 20:00:00 15.8 24 Nordeste 39 Nordeste 0 -- -- 82
2019-12-13 19:00:00 15.8 23 Nordeste 43 Norte 0 -- -- 80
2019-12-13 18:00:00 16 26 Nordeste 47 Nordeste 0 -- -- 80
2019-12-13 17:00:00 16.6 28 Nordeste 50 Nordeste 0 -- -- 77
2019-12-13 16:00:00 17.2 27 Nordeste 53 Nordeste 0 -- -- 73
2019-12-13 15:00:00 17.3 30 Nordeste 50 Norte 0 -- -- 69
2019-12-13 14:00:00 17.7 28 Nordeste 55 Nordeste 0 -- -- 67
2019-12-13 13:00:00 16.8 28 Nordeste 49 Nordeste 0 -- -- 72
2019-12-13 12:00:00 17 28 Nordeste 57 Nordeste 0 -- -- 69
2019-12-13 11:00:00 16.5 31 Nordeste 56 Nordeste 0 -- -- 68
2019-12-13 10:00:00 16 25 Nordeste 46 Nordeste 0 -- -- 74
2019-12-13 09:00:00 15.6 26 Nordeste 48 Norte 0 -- -- 72
2019-12-13 08:00:00 15.4 27 Nordeste 49 Nordeste 0 -- -- 72
2019-12-13 07:00:00 15.2 29 Nordeste 54 Nordeste 0 -- -- 73
2019-12-13 06:00:00 14.8 26 Nordeste 60 Nordeste 0 -- -- 73
2019-12-13 05:00:00 14.7 24 Nordeste 55 Nordeste 0 -- -- 74
2019-12-13 04:00:00 14.7 30 Nordeste 53 Nordeste 0 -- -- 74
2019-12-13 03:00:00 14.8 33 Nordeste 57 Nordeste 0 -- -- 73
2019-12-13 02:00:00 15.1 29 Nordeste 59 Nordeste 0 -- -- 75
2019-12-13 01:00:00 14.9 33 Nordeste 61 Nordeste 0 -- -- 70
2019-12-13 00:00:00 15.1 32 Nordeste 63 Nordeste 0 -- -- 74
2019-12-12 23:00:00 15.3 41 Nordeste 61 Nordeste 0 -- -- 70
2019-12-12 22:00:00 15.1 36 Nordeste 57 Nordeste 0 -- -- 73
2019-12-12 21:00:00 15.3 38 Nordeste 55 Nordeste 0 -- -- 72
2019-12-12 20:00:00 15.4 34 Nordeste 55 Nordeste 0 -- -- 69
2019-12-12 19:00:00 15.5 30 Nordeste 57 Nordeste 0 -- -- 69
2019-12-12 18:00:00 16 34 Nordeste 63 Nordeste 0 -- -- 69
2019-12-12 17:00:00 16.5 31 Nordeste 53 Nordeste 0 -- -- 75
2019-12-12 16:00:00 16.6 29 Nordeste 50 Norte 0 -- -- 75
2019-12-12 15:00:00 16.7 28 Norte 52 Nordeste 0 -- -- 74
2019-12-12 14:00:00 17.3 27 Nordeste 46 Norte 0 -- -- 73
2019-12-12 13:00:00 17.3 30 Nordeste 58 Nordeste 0 -- -- 75
2019-12-12 12:00:00 17.4 32 Nordeste 59 Nordeste 0 -- -- 72
2019-12-12 11:00:00 17.7 38 Nordeste 62 Nordeste 0 -- -- 74
2019-12-12 10:00:00 17.5 33 Nordeste 55 Nordeste 0 -- -- 80
2019-12-12 09:00:00 16.4 30 Nordeste 47 Nordeste 0 -- -- 82
2019-12-12 08:00:00 16.2 28 Nordeste 50 Nordeste 0 -- -- 85
2019-12-12 07:00:00 15.8 32 Nordeste 54 Este 0 -- -- 85
2019-12-12 06:00:00 15.7 35 Nordeste 55 Nordeste 0 -- -- 83
2019-12-12 05:00:00 15.5 33 Nordeste 55 Nordeste 0 -- -- 84
2019-12-12 04:00:00 15.5 34 Nordeste 50 Nordeste 0 -- -- 83
2019-12-12 03:00:00 15.4 30 Nordeste 47 Nordeste 0 -- -- 84
2019-12-12 02:00:00 15.4 29 Nordeste 49 Nordeste 0 -- -- 84
2019-12-12 01:00:00 15.5 28 Nordeste 50 Nordeste 0 -- -- 84
2019-12-12 00:00:00 15.7 31 Nordeste 44 Nordeste 0 -- -- 84
2019-12-11 23:00:00 15.7 24 Nordeste 44 Nordeste 0 -- -- 84
2019-12-11 22:00:00 15.8 24 Nordeste 45 Este 0 -- -- 82
2019-12-11 21:00:00 15.7 26 Nordeste 44 Nordeste 0 -- -- 81
2019-12-11 20:00:00 15.8 24 Nordeste 47 Nordeste 0 -- -- 80
2019-12-11 19:00:00 15.9 23 Nordeste 50 Nordeste 0 -- -- 78
2019-12-11 18:00:00 16 23 Nordeste 45 Nordeste 0 -- -- 75
2019-12-11 17:00:00 16.4 29 Nordeste 48 Nordeste 0 -- -- 72
2019-12-11 16:00:00 17 26 Nordeste 45 Nordeste 0 -- -- 71
2019-12-11 15:00:00 17.7 23 Nordeste 44 Nordeste 0 -- -- 66
2019-12-11 14:00:00 17.7 25 Nordeste 39 Nordeste 0 -- -- 67
2019-12-11 13:00:00 17.5 24 Nordeste 41 Nordeste 0 -- -- 70
2019-12-11 12:00:00 17.1 20 Nordeste 42 Nordeste 0 -- -- 73
2019-12-11 11:00:00 16.9 22 Nordeste 36 Nordeste 0 -- -- 77
2019-12-11 10:00:00 16.4 23 Nordeste 34 Nordeste 0 -- -- 79
2019-12-11 09:00:00 16 18 Nordeste 35 Nordeste 0 -- -- 82
2019-12-11 08:00:00 15.8 26 Nordeste 37 Nordeste 0 -- -- 83
2019-12-11 07:00:00 15.7 25 Nordeste 36 Nordeste 0 -- -- 82
2019-12-11 06:00:00 15.7 23 Nordeste 38 Nordeste 0 -- -- 83
2019-12-11 05:00:00 15.8 19 Nordeste 33 Nordeste 0 -- -- 87
2019-12-11 04:00:00 14.6 10 Nordeste 25 Nordeste 0 -- -- 90
2019-12-11 03:00:00 14.6 17 Nordeste 24 Nordeste 0 -- -- 91
2019-12-11 02:00:00 15.2 17 Nordeste 29 Nordeste 0 -- -- 87
2019-12-11 01:00:00 15.5 22 Nordeste 33 Nordeste 0 -- -- 87
2019-12-11 00:00:00 15.5 21 Nordeste 31 Nordeste 0 -- -- 85
2019-12-10 23:00:00 14.9 13 Nordeste 27 Nordeste 0 -- -- 87
2019-12-10 22:00:00 15.7 22 Nordeste 39 Nordeste 0 -- -- 85
2019-12-10 21:00:00 15.9 24 Nordeste 37 Nordeste 0 -- -- 85
2019-12-10 20:00:00 16.3 25 Nordeste 47 Nordeste 0 -- -- 83
2019-12-10 19:00:00 16.4 31 Nordeste 47 Nordeste 0 -- -- 85
2019-12-10 18:00:00 16.7 26 Nordeste 45 Nordeste 0 -- -- 86
2019-12-10 17:00:00 17 29 Nordeste 51 Nordeste 0 -- -- 83
2019-12-10 16:00:00 17.6 27 Nordeste 50 Nordeste 0 -- -- 83
2019-12-10 15:00:00 18 27 Nordeste 44 Nordeste 0 -- -- 79
2019-12-10 14:00:00 18.4 26 Norte 39 Norte 0 -- -- 76
2019-12-10 13:00:00 18.6 24 Norte 35 Norte 0 -- -- 75
2019-12-10 12:00:00 18.4 23 Nordeste 35 Norte 0 -- -- 77
2019-12-10 11:00:00 17.9 22 Nordeste 37 Nordeste 0 -- -- 76
2019-12-10 10:00:00 17.1 15 Nordeste 23 Nordeste 0 -- -- 82
2019-12-10 09:00:00 16.2 12 Nordeste 21 Nordeste 0 -- -- 87
2019-12-10 08:00:00 14.7 9 Nordeste 14 Nordeste 0 -- -- 88
2019-12-10 07:00:00 14.6 12 Nordeste 24 Nordeste 0 -- -- 88
2019-12-10 06:00:00 14.8 19 Nordeste 26 Nordeste 0 -- -- 88
2019-12-10 05:00:00 14.9 20 Nordeste 30 Nordeste 0 -- -- 87
2019-12-10 04:00:00 14.7 20 Nordeste 29 Nordeste 0 -- -- 86
2019-12-10 03:00:00 15.1 22 Nordeste 35 Nordeste 0 -- -- 85
2019-12-10 02:00:00 15.3 23 Nordeste 31 Nordeste 0 -- -- 83
2019-12-10 01:00:00 15 19 Nordeste 24 Nordeste 0 -- -- 84
2019-12-10 00:00:00 15.2 15 Nordeste 21 Nordeste 0 -- -- 83
2019-12-09 23:00:00 14 14 Nordeste 20 Nordeste 0 -- -- 86
2019-12-09 22:00:00 14.3 10 Nordeste 30 Nordeste 0 -- -- 84
2019-12-09 21:00:00 15.6 21 Nordeste 35 Este 0 -- -- 81
2019-12-09 20:00:00 15.9 23 Nordeste 37 Nordeste 0 -- -- 83
2019-12-09 19:00:00 16 24 Nordeste 39 Nordeste 0 -- -- 82
2019-12-09 18:00:00 16.2 21 Nordeste 36 Nordeste 0 -- -- 82
2019-12-09 17:00:00 17 22 Nordeste 36 Nordeste 0 -- -- 77
2019-12-09 16:00:00 17.8 21 Nordeste 38 Nordeste 0 -- -- 73
2019-12-09 15:00:00 18.8 19 Nordeste 41 Nordeste 0 -- -- 71
2019-12-09 14:00:00 18.6 24 Nordeste 42 Nordeste 0 -- -- 70
2019-12-09 13:00:00 18.5 26 Nordeste 40 Nordeste 0 -- -- 72
2019-12-09 12:00:00 18.3 27 Nordeste 41 Nordeste 0 -- -- 73
2019-12-09 11:00:00 17.8 24 Nordeste 36 Nordeste 0 -- -- 73
2019-12-09 10:00:00 17.3 25 Nordeste 37 Nordeste 0 -- -- 77
2019-12-09 09:00:00 16.2 21 Nordeste 35 Nordeste 0 -- -- 82
2019-12-09 08:00:00 15.5 22 Nordeste 34 Nordeste 0 -- -- 84
2019-12-09 07:00:00 15.4 25 Nordeste 36 Nordeste 0 -- -- 85
2019-12-09 06:00:00 15.4 26 Nordeste 38 Nordeste 0 -- -- 87
2019-12-09 05:00:00 15 22 Nordeste 31 Nordeste 0 -- -- 87
2019-12-09 04:00:00 14.2 15 Nordeste 23 Nordeste 0 -- -- 87
2019-12-09 03:00:00 14 18 Nordeste 37 Nordeste 0 -- -- 89
2019-12-09 02:00:00 15.5 28 Nordeste 37 Nordeste 0 -- -- 82
2019-12-09 01:00:00 15.6 23 Nordeste 40 Nordeste 0 -- -- 81
2019-12-09 00:00:00 15.7 26 Nordeste 40 Nordeste 0 -- -- 81
2019-12-08 23:00:00 15.9 27 Nordeste 49 Nordeste 0 -- -- 80
2019-12-08 22:00:00 15.9 26 Nordeste 50 Nordeste 0 -- -- 80
2019-12-08 21:00:00 16.1 25 Nordeste 47 Nordeste 0 -- -- 81
2019-12-08 20:00:00 16.1 23 Nordeste 50 Este 0 -- -- 82
2019-12-08 19:00:00 16.2 26 Nordeste 46 Nordeste 0 -- -- 83
2019-12-08 18:00:00 16.3 23 Nordeste 40 Norte 0 -- -- 78
2019-12-08 17:00:00 16.7 24 Nordeste 47 Nordeste 0 -- -- 78
2019-12-08 16:00:00 17.1 28 Nordeste 46 Nordeste 0 -- -- 74
2019-12-08 15:00:00 17.2 26 Nordeste 45 Nordeste 0 -- -- 75
2019-12-08 14:00:00 17.4 25 Nordeste 44 Nordeste 0 -- -- 76
2019-12-08 13:00:00 17.6 25 Nordeste 44 Norte 0 -- -- 71
2019-12-08 12:00:00 17.4 23 Nordeste 42 Nordeste 0 -- -- 72
2019-12-08 11:00:00 17.6 28 Nordeste 42 Nordeste 0 -- -- 68
2019-12-08 10:00:00 16.9 26 Nordeste 45 Nordeste 0 -- -- 74
2019-12-08 09:00:00 16 24 Nordeste 38 Norte 0 -- -- 77
2019-12-08 08:00:00 15.2 22 Nordeste 36 Nordeste 0 -- -- 80
2019-12-08 07:00:00 15.3 22 Nordeste 39 Nordeste 0 -- -- 80
2019-12-08 06:00:00 15.2 18 Nordeste 41 Nordeste 0 -- -- 81
2019-12-08 05:00:00 15.3 28 Nordeste 45 Norte 0 -- -- 79
2019-12-08 04:00:00 15.5 26 Nordeste 46 Nordeste 0 -- -- 79
2019-12-08 03:00:00 15.6 24 Nordeste 39 Nordeste 0 -- -- 79
2019-12-08 02:00:00 15.7 24 Nordeste 40 Nordeste 0 -- -- 79
2019-12-08 01:00:00 15.8 27 Nordeste 50 Nordeste 0 -- -- 79
2019-12-08 00:00:00 16 24 Nordeste 43 Nordeste 0 -- -- 79
2019-12-07 23:00:00 16.1 26 Nordeste 44 Nordeste 0 -- -- 81
2019-12-07 22:00:00 16.2 24 Nordeste 47 Nordeste 0 -- -- 83
2019-12-07 21:00:00 16.3 22 Nordeste 41 Nordeste 0 -- -- 83
2019-12-07 20:00:00 16.2 25 Nordeste 41 Nordeste 0 -- -- 84
2019-12-07 19:00:00 16.1 19 Nordeste 42 Nordeste 0.2 -- -- 86
2019-12-07 18:00:00 16.6 19 Nordeste 35 Norte 0 -- -- 84
2019-12-07 17:00:00 17.2 18 Norte 30 Norte 0 -- -- 82
2019-12-07 16:00:00 17.3 20 Norte 33 Nordeste 0 -- -- 80
2019-12-07 15:00:00 17.8 22 Norte 36 Nordeste 0 -- -- 76
2019-12-07 14:00:00 18.5 23 Norte 35 Norte 0 -- -- 68
2019-12-07 13:00:00 18.4 20 Nordeste 31 Nordeste 0 -- -- 71
2019-12-07 12:00:00 17.8 20 Norte 33 Nordeste 0 -- -- 74
2019-12-07 11:00:00 17.6 16 Nordeste 29 Nordeste 0 -- -- 75
2019-12-07 10:00:00 16.4 13 Nordeste 23 Nordeste 0 -- -- 83
2019-12-07 09:00:00 16 14 Nordeste 26 Norte 0 -- -- 83
2019-12-07 08:00:00 15.5 15 Nordeste 26 Nordeste 0 -- -- 87
2019-12-07 07:00:00 15 10 Norte 19 Norte 0 -- -- 90
2019-12-07 06:00:00 15.2 9 Norte 18 Norte 0 -- -- 88
2019-12-07 05:00:00 14.4 8 Norte 13 Norte 0 -- -- 86
2019-12-07 04:00:00 14.5 6 Norte 15 Norte 0 -- -- 87
2019-12-07 03:00:00 14.5 6 Norte 26 Nordeste 0 -- -- 84
2019-12-07 02:00:00 14.8 14 Nordeste 27 Nordeste 0 -- -- 81
2019-12-07 01:00:00 14.7 13 Nordeste 30 Nordeste 0 -- -- 81
2019-12-07 00:00:00 15 16 Nordeste 32 Nordeste 0 -- -- 78
2019-12-06 23:00:00 14.6 14 Norte 32 Norte 0 -- -- 83
2019-12-06 22:00:00 14.7 13 Norte 31 Norte 0 -- -- 84
2019-12-06 21:00:00 14.4 15 Norte 26 Norte 0 -- -- 83
2019-12-06 20:00:00 13.8 8 Norte 21 Nordeste 0 -- -- 87
2019-12-06 19:00:00 14.7 17 Nordeste 30 Nordeste 0 -- -- 83
2019-12-06 18:00:00 14.8 19 Nordeste 35 Nordeste 0 -- -- 80
2019-12-06 17:00:00 15.1 19 Nordeste 46 Este 0.2 -- -- 80
2019-12-06 16:00:00 16.4 23 Norte 43 Norte 0 -- -- 74
2019-12-06 15:00:00 16.2 20 Norte 45 Norte 0 -- -- 83
2019-12-06 14:00:00 17.1 27 Norte 41 Norte 0 -- -- 71
2019-12-06 13:00:00 16.8 25 Norte 41 Norte 0 -- -- 76
2019-12-06 12:00:00 16.4 26 Norte 39 Nordeste 0 -- -- 82
2019-12-06 11:00:00 16 23 Norte 38 Norte 0 -- -- 85
2019-12-06 10:00:00 15.7 17 Norte 37 Norte 1.2 -- -- 91
2019-12-06 09:00:00 15.3 15 Nordeste 32 Nordeste 0 -- -- 88
2019-12-06 08:00:00 14.2 20 Nordeste 37 Nordeste 0 -- -- 87
2019-12-06 07:00:00 14.5 19 Nordeste 42 Norte 0 -- -- 85
2019-12-06 06:00:00 14.6 19 Norte 34 Norte 0 -- -- 86
2019-12-06 05:00:00 14 19 Nordeste 43 Norte 0 -- -- 87
2019-12-06 04:00:00 14.7 22 Nordeste 39 Nordeste 0 -- -- 81
2019-12-06 03:00:00 13.8 20 Nordeste 41 Nordeste 1.4 -- -- 91
2019-12-06 02:00:00 14.1 13 Norte 35 Nordeste 0 -- -- 86
2019-12-06 01:00:00 14.6 19 Nordeste 35 Nordeste 0 -- -- 88
2019-12-06 00:00:00 14.6 17 Nordeste 42 Norte 0 -- -- 88
2019-12-05 23:00:00 14.8 27 Norte 45 Norte 0.2 -- -- 87
2019-12-05 22:00:00 15.2 30 Norte 48 Norte 0 -- -- 84
2019-12-05 21:00:00 15.2 29 Norte 48 Noroeste 0 -- -- 81
2019-12-05 20:00:00 15.6 24 Noroeste 44 Noroeste 0 -- -- 75
2019-12-05 19:00:00 15.3 28 Noroeste 45 Noroeste 0 -- -- 77
2019-12-05 18:00:00 15.2 26 Noroeste 51 Noroeste 0 -- -- 75
2019-12-05 17:00:00 15.6 25 Noroeste 44 Norte 0 -- -- 74
2019-12-05 16:00:00 15.6 26 Norte 44 Norte 0 -- -- 75
2019-12-05 15:00:00 15.6 28 Norte 45 Noroeste 0 -- -- 75
2019-12-05 14:00:00 15.5 27 Norte 51 Noroeste 0.2 -- -- 83
2019-12-05 13:00:00 16.1 26 Norte 44 Noroeste 0 -- -- 73
2019-12-05 12:00:00 16.2 23 Noroeste 46 Noroeste 0 -- -- 75
2019-12-05 11:00:00 15.8 30 Noroeste 47 Noroeste 0.2 -- -- 78
2019-12-05 10:00:00 14.5 19 Noroeste 41 Noroeste 1.2 -- -- 88
2019-12-05 09:00:00 15 35 Noroeste 55 Noroeste 0 -- -- 82
2019-12-05 08:00:00 14.7 30 Noroeste 42 Noroeste 0 -- -- 80
2019-12-05 07:00:00 14.3 26 Noroeste 55 Noroeste 0 -- -- 76
2019-12-05 06:00:00 14.3 28 Noroeste 55 Noroeste 0 -- -- 80
2019-12-05 05:00:00 14.5 30 Noroeste 56 Noroeste 0.2 -- -- 77
2019-12-05 04:00:00 14.7 34 Noroeste 59 Noroeste 0 -- -- 72
2019-12-05 03:00:00 14 24 Noroeste 41 Noroeste 0 -- -- 83
2019-12-05 02:00:00 13.4 25 Noroeste 54 Noroeste 2.4 -- -- 94
2019-12-05 01:00:00 14.4 14 Norte 50 Noroeste 2 -- -- 96
2019-12-05 00:00:00 15.3 18 Oeste 35 Noroeste 3.8 -- -- 95
2019-12-04 23:00:00 16.4 14 Oeste 23 Oeste 0 -- -- 82
2019-12-04 22:00:00 16.2 12 Oeste 19 Noroeste 0 -- -- 80
2019-12-04 21:00:00 16.2 12 Noroeste 27 Noroeste 0 -- -- 80
2019-12-04 20:00:00 16.3 21 Noroeste 36 Noroeste 0 -- -- 78
2019-12-04 19:00:00 16.4 26 Noroeste 35 Noroeste 0 -- -- 73
2019-12-04 18:00:00 15.9 12 Noroeste 36 Noroeste 0 -- -- 79
2019-12-04 17:00:00 15.6 23 Noroeste 47 Noroeste 0 -- -- 81
2019-12-04 16:00:00 17.5 31 Noroeste 42 Noroeste 0 -- -- 66
2019-12-04 15:00:00 17.8 19 Noroeste 35 Noroeste 0 -- -- 68
2019-12-04 14:00:00 18.6 20 Noroeste 35 Noroeste 0 -- -- 65
2019-12-04 13:00:00 18.6 20 Noroeste 36 Noroeste 0 -- -- 62
2019-12-04 12:00:00 18.6 13 Noroeste 29 Noroeste 0 -- -- 64
2019-12-04 11:00:00 17.4 19 Noroeste 28 Noroeste 0 -- -- 70
2019-12-04 10:00:00 17.1 17 Noroeste 30 Noroeste 0 -- -- 67
2019-12-04 09:00:00 16.4 14 Noroeste 20 Noroeste 0 -- -- 72
2019-12-04 08:00:00 15.4 9 Noroeste 17 Noroeste 0 -- -- 74
2019-12-04 07:00:00 15.2 10 Noroeste 20 Norte 0 -- -- 76
2019-12-04 06:00:00 15.5 12 Noroeste 21 Norte 0 -- -- 73
2019-12-04 05:00:00 15.5 12 Noroeste 18 Noroeste 0 -- -- 74
2019-12-04 04:00:00 15.6 10 Norte 20 Noroeste 0 -- -- 76
2019-12-04 03:00:00 15.6 10 Noroeste 25 Norte 0 -- -- 76
2019-12-04 02:00:00 15.6 11 Norte 27 Norte 0 -- -- 76
2019-12-04 01:00:00 16 17 Norte 28 Norte 0 -- -- 76
2019-12-04 00:00:00 16.2 22 Norte 31 Norte 0 -- -- 76
2019-12-03 23:00:00 16.3 15 Norte 28 Norte 0 -- -- 72
2019-12-03 22:00:00 16.2 18 Norte 31 Norte 0 -- -- 74
2019-12-03 21:00:00 16.3 17 Norte 27 Norte 0 -- -- 72
2019-12-03 20:00:00 16 14 Norte 28 Noroeste 0 -- -- 75
2019-12-03 19:00:00 16.1 17 Noroeste 27 Noroeste 0 -- -- 75
2019-12-03 18:00:00 16.3 14 Norte 37 Noroeste 0 -- -- 71
2019-12-03 17:00:00 16.9 17 Norte 36 Noroeste 0 -- -- 71
2019-12-03 16:00:00 17.4 24 Norte 39 Norte 0 -- -- 67
2019-12-03 15:00:00 17.6 25 Norte 43 Noroeste 0 -- -- 66
2019-12-03 14:00:00 18.1 24 Norte 39 Norte 0 -- -- 63
2019-12-03 13:00:00 17.6 27 Norte 48 Noroeste 0 -- -- 66
2019-12-03 12:00:00 17.5 22 Norte 46 Noroeste 0 -- -- 66
2019-12-03 11:00:00 17.4 28 Norte 40 Norte 0 -- -- 68
2019-12-03 10:00:00 16.6 21 Norte 44 Noroeste 0 -- -- 71
2019-12-03 09:00:00 16.5 19 Noroeste 41 Norte 0 -- -- 64
2019-12-03 08:00:00 15.6 23 Noroeste 37 Noroeste 0 -- -- 65
2019-12-03 07:00:00 15.6 26 Noroeste 44 Noroeste 0 -- -- 64
2019-12-03 06:00:00 15.3 27 Noroeste 46 Norte 0 -- -- 69
2019-12-03 05:00:00 15.2 23 Noroeste 52 Norte 0 -- -- 71
2019-12-03 04:00:00 15.8 28 Noroeste 51 Noroeste 0 -- -- 69
2019-12-03 03:00:00 15.6 31 Noroeste 46 Norte 0 -- -- 72
2019-12-03 02:00:00 15.6 25 Noroeste 48 Norte 0 -- -- 68
2019-12-03 01:00:00 15.5 30 Noroeste 47 Noroeste 0 -- -- 77
2019-12-03 00:00:00 15.3 24 Noroeste 48 Noroeste 0 -- -- 81
2019-12-02 23:00:00 15.9 26 Noroeste 48 Noroeste 0 -- -- 69
2019-12-02 22:00:00 16 27 Noroeste 51 Norte 0 -- -- 68
2019-12-02 21:00:00 16 22 Noroeste 40 Noroeste 0 -- -- 73
2019-12-02 20:00:00 16 25 Noroeste 42 Noroeste 0 -- -- 69
2019-12-02 19:00:00 16 28 Noroeste 46 Noroeste 0 -- -- 75
2019-12-02 18:00:00 16.3 29 Noroeste 46 Noroeste 0 -- -- 71
2019-12-02 17:00:00 16.9 23 Noroeste 43 Noroeste 0 -- -- 68
2019-12-02 16:00:00 16.8 21 Noroeste 46 Noroeste 0 -- -- 76
2019-12-02 15:00:00 17.4 21 Noroeste 40 Noroeste 0 -- -- 72
2019-12-02 14:00:00 18.1 24 Norte 39 Norte 0 -- -- 72
2019-12-02 13:00:00 17.4 22 Noroeste 45 Noroeste 0 -- -- 73
2019-12-02 12:00:00 17.8 24 Noroeste 38 Noroeste 0 -- -- 75
2019-12-02 11:00:00 17.6 24 Noroeste 46 Noroeste 0 -- -- 69
2019-12-02 10:00:00 17 27 Noroeste 46 Noroeste 0 -- -- 72
2019-12-02 09:00:00 16.7 22 Noroeste 43 Noroeste 0 -- -- 70
2019-12-02 08:00:00 16.3 29 Noroeste 45 Noroeste 0 -- -- 74
2019-12-02 07:00:00 15.8 20 Noroeste 45 Noroeste 0 -- -- 74
2019-12-02 06:00:00 15.9 31 Noroeste 46 Noroeste 0.2 -- -- 74
2019-12-02 05:00:00 15.8 22 Noroeste 38 Noroeste 0 -- -- 72
2019-12-02 04:00:00 15.9 19 Norte 31 Noroeste 0 -- -- 74
2019-12-02 03:00:00 15.9 18 Norte 36 Norte 0 -- -- 84
2019-12-02 02:00:00 16.3 14 Norte 30 Norte 0 -- -- 86
2019-12-02 01:00:00 16.4 18 Noroeste 26 Noroeste 0 -- -- 84
2019-12-02 00:00:00 16.7 15 Norte 31 Norte 0.2 -- -- 84
2019-12-01 23:00:00 16.8 12 Norte 30 Norte 0 -- -- 91
2019-12-01 22:00:00 17 15 Noroeste 32 Noroeste 0 -- -- 84
2019-12-01 21:00:00 16.8 14 Noroeste 25 Norte 0 -- -- 85
2019-12-01 20:00:00 16.2 11 Noroeste 19 Noroeste 0 -- -- 82
2019-12-01 19:00:00 16.5 10 Norte 19 Norte 0 -- -- 80
2019-12-01 18:00:00 17.1 15 Norte 24 Norte 0 -- -- 81
2019-12-01 17:00:00 17.9 17 Norte 28 Norte 0 -- -- 75
2019-12-01 16:00:00 18.4 22 Norte 33 Nordeste 0 -- -- 73
2019-12-01 15:00:00 19.2 25 Norte 37 Norte 0 -- -- 64
2019-12-01 14:00:00 18.7 22 Norte 35 Norte 0 -- -- 68
2019-12-01 13:00:00 18.9 21 Norte 33 Norte 0 -- -- 68
2019-12-01 12:00:00 19.1 19 Nordeste 31 Norte 0 -- -- 66
2019-12-01 11:00:00 18.6 19 Nordeste 34 Nordeste 0 -- -- 70
2019-12-01 10:00:00 17.7 16 Nordeste 28 Nordeste 0 -- -- 78
2019-12-01 09:00:00 16.9 15 Nordeste 28 Nordeste 0 -- -- 82
2019-12-01 08:00:00 14.9 10 Nordeste 26 Nordeste 0 -- -- 87
2019-12-01 07:00:00 15.8 21 Nordeste 40 Nordeste 0 -- -- 84
2019-12-01 06:00:00 16.1 24 Nordeste 37 Nordeste 0 -- -- 84
2019-12-01 05:00:00 16.2 20 Nordeste 33 Nordeste 0 -- -- 85
2019-12-01 04:00:00 16.3 14 Nordeste 27 Nordeste 0 -- -- 84
2019-12-01 03:00:00 16.4 15 Nordeste 25 Nordeste 0 -- -- 84
2019-12-01 02:00:00 16.5 15 Nordeste 28 Nordeste 0 -- -- 85
2019-12-01 01:00:00 16.5 18 Nordeste 30 Nordeste 0 -- -- 87
2019-12-01 00:00:00 16.5 18 Nordeste 36 Norte 0 -- -- 89
2019-11-30 23:00:00 16.7 17 Nordeste 29 Norte 0 -- -- 92
2019-11-30 22:00:00 16.8 16 Nordeste 24 Nordeste 0 -- -- 91
2019-11-30 21:00:00 16.9 8 Nordeste 20 Norte 0 -- -- 89
2019-11-30 20:00:00 17.2 8 Norte 16 Norte 0 -- -- 87
2019-11-30 19:00:00 17.9 5 Norte 11 Norte 0 -- -- 83
2019-11-30 18:00:00 19.2 5 Norte 19 Norte 0 -- -- 78
2019-11-30 17:00:00 19.8 12 Norte 26 Norte 0 -- -- 76
2019-11-30 16:00:00 20.4 18 Norte 31 Norte 0 -- -- 74
2019-11-30 15:00:00 21.3 22 Norte 30 Norte 0 -- -- 70
2019-11-30 14:00:00 22.4 23 Norte 33 Nordeste 0 -- -- 65
2019-11-30 13:00:00 23.1 22 Norte 30 Este 0 -- -- 60
2019-11-30 12:00:00 26.5 18 Este 29 Este 0 -- -- 23
2019-11-30 11:00:00 25.5 19 Este 28 Este 0 -- -- 25
2019-11-30 10:00:00 24.2 17 Este 28 Este 0 -- -- 30
2019-11-30 09:00:00 21.8 19 Este 25 Sudeste 0 -- -- 34
2019-11-30 08:00:00 19.8 18 Sudeste 24 Sudeste 0 -- -- 35
2019-11-30 07:00:00 18.3 14 Sudeste 22 Sudeste 0 -- -- 39
2019-11-30 06:00:00 19.7 19 Sudeste 28 Este 0 -- -- 37
2019-11-30 05:00:00 19.1 21 Sudeste 28 Sudeste 0 -- -- 42
2019-11-30 04:00:00 18.6 17 Sudeste 25 Sudeste 0 -- -- 47
2019-11-30 03:00:00 17.4 11 Sudeste 22 Sudeste 0 -- -- 50
2019-11-30 02:00:00 17.3 8 Sudeste 13 Sudeste 0 -- -- 53
2019-11-30 01:00:00 19 8 Sudeste 11 Sudeste 0 -- -- 45
2019-11-30 00:00:00 17.9 6 Sudeste 11 Sudeste 0 -- -- 61
2019-11-29 23:00:00 16.4 6 Sudoeste 15 Noroeste 0 -- -- 84
2019-11-29 22:00:00 17.9 0 Calma 9 Sur 0 -- -- 65
2019-11-29 21:00:00 17.8 5 Sur 11 Norte 0 -- -- 76
2019-11-29 20:00:00 19.2 2 Nordeste 7 Sudeste 0 -- -- 72
2019-11-29 19:00:00 19.5 3 Sudeste 13 Este 0 -- -- 76
2019-11-29 18:00:00 20.8 5 Nordeste 20 Norte 0 -- -- 69
2019-11-29 17:00:00 24.1 11 Norte 15 Norte 0 -- -- 58
2019-11-29 16:00:00 26.6 10 Sudeste 24 Sudeste 0 -- -- 27
2019-11-29 15:00:00 26.4 16 Sudeste 33 Sudeste 0 -- -- 29
2019-11-29 14:00:00 27 25 Sudeste 37 Sudeste 0 -- -- 27
2019-11-29 13:00:00 26.3 28 Sudeste 40 Sudeste 0 -- -- 29
2019-11-29 12:00:00 25.4 28 Sudeste 41 Sudeste 0 -- -- 35
2019-11-29 11:00:00 24.7 27 Este 38 Este 0 -- -- 37
2019-11-29 10:00:00 23.6 24 Este 37 Este 0 -- -- 37
2019-11-29 09:00:00 22.6 23 Este 34 Este 0 -- -- 36
2019-11-29 08:00:00 20.4 19 Este 30 Este 0 -- -- 38
2019-11-29 07:00:00 19.1 18 Este 31 Este 0 -- -- 40
2019-11-29 06:00:00 19.5 22 Este 36 Este 0 -- -- 38
2019-11-29 05:00:00 18.8 20 Este 42 Este 0 -- -- 46
2019-11-29 04:00:00 18.9 18 Este 30 Este 0 -- -- 45
2019-11-29 03:00:00 19.8 25 Este 34 Este 0 -- -- 39
2019-11-29 02:00:00 18.2 16 Este 31 Este 0 -- -- 50
2019-11-29 01:00:00 15.6 4 Este 12 Norte 0 -- -- 80
2019-11-29 00:00:00 16.3 4 Norte 14 Norte 0 -- -- 78
2019-11-28 23:00:00 15.9 6 Este 9 Este 0 -- -- 88
2019-11-28 22:00:00 16.4 3 Nordeste 13 Nordeste 0 -- -- 85
2019-11-28 21:00:00 16.6 6 Norte 15 Norte 0 -- -- 89
2019-11-28 20:00:00 16.8 8 Norte 11 Norte 0 -- -- 86
2019-11-28 19:00:00 17.2 3 Este 15 Nordeste 0 -- -- 85
2019-11-28 18:00:00 17.7 8 Nordeste 18 Norte 0 -- -- 84
2019-11-28 17:00:00 18.6 12 Nordeste 25 Norte 0 -- -- 81
2019-11-28 16:00:00 19.9 17 Norte 26 Norte 0 -- -- 73
2019-11-28 15:00:00 20.7 17 Norte 26 Norte 0 -- -- 69
2019-11-28 14:00:00 21.6 16 Norte 27 Este 0 -- -- 63
2019-11-28 13:00:00 21.4 14 Norte 19 Nordeste 0 -- -- 61
2019-11-28 12:00:00 19.7 6 Este 11 Noroeste 0 -- -- 66
2019-11-28 11:00:00 17.4 5 Norte 9 Norte 0 -- -- 80
2019-11-28 10:00:00 16.8 3 Este 9 Este 0 -- -- 85
2019-11-28 09:00:00 16.1 6 Sudeste 8 Sudeste 0 -- -- 90
2019-11-28 08:00:00 13.7 4 Sudeste 9 Sudeste 0 -- -- 91
2019-11-28 07:00:00 12.9 8 Sudeste 14 Sudeste 0 -- -- 91
2019-11-28 06:00:00 13.9 0 Calma 13 Nordeste 0 -- -- 88
2019-11-28 05:00:00 15.2 5 Norte 18 Nordeste 0 -- -- 87
2019-11-28 04:00:00 14.8 6 Norte 12 Norte 0 -- -- 90
2019-11-28 03:00:00 14 5 Sur 7 Este 0 -- -- 90
2019-11-28 02:00:00 15.5 10 Nordeste 30 Nordeste 0 -- -- 88
2019-11-28 01:00:00 16 17 Nordeste 33 Nordeste 0 -- -- 88
2019-11-28 00:00:00 16.2 14 Nordeste 28 Nordeste 0 -- -- 88
2019-11-27 23:00:00 16.3 18 Nordeste 30 Nordeste 0 -- -- 86
2019-11-27 22:00:00 16.5 14 Nordeste 29 Nordeste 0 -- -- 86
2019-11-27 21:00:00 16.5 12 Nordeste 23 Norte 0 -- -- 86
2019-11-27 20:00:00 16.5 12 Nordeste 27 Nordeste 0 -- -- 86
2019-11-27 19:00:00 16.7 14 Nordeste 28 Nordeste 0 -- -- 86
2019-11-27 18:00:00 17 16 Norte 31 Nordeste 0 -- -- 85
2019-11-27 17:00:00 18 21 Norte 29 Norte 0 -- -- 81
2019-11-27 16:00:00 18.9 18 Norte 29 Nordeste 0 -- -- 76
2019-11-27 15:00:00 19.4 17 Nordeste 30 Nordeste 0 -- -- 74
2019-11-27 14:00:00 18.8 18 Nordeste 33 Nordeste 0 -- -- 76
2019-11-27 13:00:00 19.4 21 Nordeste 33 Nordeste 0 -- -- 74
2019-11-27 05:00:00 -- -- -- -- -- -- -- -- --
2019-11-27 04:00:00 -- -- -- -- -- -- -- -- --
2019-11-27 03:00:00 16.2 26 Nordeste 39 Nordeste 0 -- -- 89
2019-11-27 02:00:00 16.2 18 Nordeste 32 Nordeste 0 -- -- 89
2019-11-27 01:00:00 16.2 24 Nordeste 33 Nordeste 0 -- -- 90
2019-11-27 00:00:00 16.3 13 Nordeste 30 Nordeste 0 -- -- 90
2019-11-26 23:00:00 16.2 13 Norte 27 Nordeste 0 -- -- 91
2019-11-26 22:00:00 16.3 13 Nordeste 27 Nordeste 0 -- -- 90
2019-11-26 21:00:00 16.4 15 Nordeste 32 Nordeste 0 -- -- 90
2019-11-26 20:00:00 16.5 20 Nordeste 31 Nordeste 0 -- -- 89
2019-11-26 19:00:00 16.8 15 Nordeste 32 Nordeste 0 -- -- 87
2019-11-26 18:00:00 17.1 18 Nordeste 30 Norte 0 -- -- 87
2019-11-26 17:00:00 18.1 20 Nordeste 29 Norte 0 -- -- 83
2019-11-26 16:00:00 18.9 16 Nordeste 29 Nordeste 0 -- -- 80
2019-11-26 15:00:00 19.1 20 Nordeste 32 Norte 0 -- -- 76
2019-11-26 14:00:00 19.8 22 Norte 31 Norte 0 -- -- 75
2019-11-26 13:00:00 20.6 16 Norte 25 Norte 0 -- -- 70
2019-11-26 12:00:00 20.4 15 Norte 21 Norte 0 -- -- 68
2019-11-26 11:00:00 19.7 10 Nordeste 21 Nordeste 0 -- -- 69
2019-11-26 10:00:00 18.1 15 Nordeste 27 Nordeste 0 -- -- 78
2019-11-26 09:00:00 17 13 Nordeste 21 Nordeste 0 -- -- 84
2019-11-26 08:00:00 15.9 12 Nordeste 28 Nordeste 0 -- -- 89
2019-11-26 07:00:00 15.8 17 Nordeste 30 Nordeste 0 -- -- 88
2019-11-26 06:00:00 15.9 18 Nordeste 30 Nordeste 0 -- -- 90
2019-11-26 05:00:00 16 18 Nordeste 35 Nordeste 0 -- -- 89
2019-11-26 04:00:00 16 17 Nordeste 32 Nordeste 0 -- -- 91
2019-11-26 03:00:00 15.9 14 Nordeste 25 Norte 0 -- -- 91
2019-11-26 02:00:00 15.8 12 Norte 30 Nordeste 0 -- -- 90
2019-11-26 01:00:00 16.1 18 Nordeste 35 Nordeste 0 -- -- 88
2019-11-26 00:00:00 16.1 19 Nordeste 36 Nordeste 0 -- -- 88
2019-11-25 23:00:00 16.1 17 Nordeste 37 Nordeste 0 -- -- 87
2019-11-25 22:00:00 16.3 21 Nordeste 36 Este 0 -- -- 86
2019-11-25 21:00:00 16.4 18 Nordeste 34 Norte 0 -- -- 86
2019-11-25 20:00:00 16.6 16 Nordeste 35 Nordeste 0 -- -- 84
2019-11-25 19:00:00 16.8 18 Norte 31 Nordeste 0 -- -- 84
2019-11-25 18:00:00 16.9 20 Norte 34 Norte 0 -- -- 82
2019-11-25 17:00:00 17.3 23 Nordeste 37 Norte 0 -- -- 81
2019-11-25 16:00:00 18.2 23 Nordeste 36 Nordeste 0 -- -- 77
2019-11-25 15:00:00 18.9 20 Nordeste 41 Norte 0 -- -- 73
2019-11-25 14:00:00 18.7 22 Norte 35 Norte 0 -- -- 73
2019-11-25 13:00:00 18.7 23 Nordeste 40 Nordeste 0 -- -- 74
2019-11-25 12:00:00 18.8 25 Nordeste 40 Nordeste 0 -- -- 73
2019-11-25 11:00:00 17.5 22 Nordeste 39 Nordeste 0 -- -- 78
2019-11-25 10:00:00 17 -- -- -- -- -- -- -- --
2019-11-25 09:00:00 16.5 24 Nordeste 41 Nordeste 0 -- -- 80
2019-11-25 08:00:00 16.1 18 Nordeste 43 Nordeste 0 -- -- 81
2019-11-25 07:00:00 16.1 24 Nordeste 41 Nordeste 0 -- -- 81
2019-11-25 06:00:00 16.2 21 Nordeste 45 Norte 0 -- -- 82
2019-11-25 05:00:00 16 23 Nordeste 41 Nordeste 0 -- -- 82
2019-11-25 04:00:00 16 24 Nordeste 41 Nordeste 0 -- -- 82
2019-11-25 03:00:00 16.3 24 Nordeste 36 Nordeste 0 -- -- 81
2019-11-25 02:00:00 16.2 22 Nordeste 47 Nordeste 0 -- -- 80
2019-11-25 01:00:00 16.3 24 Nordeste 40 Norte 0 -- -- 78
2019-11-25 00:00:00 16.1 24 Nordeste 45 Norte 0 -- -- 78
2019-11-24 23:00:00 16.3 23 Nordeste 34 Nordeste 0 -- -- 80
2019-11-24 22:00:00 16.4 21 Nordeste 35 Norte 0 -- -- 76
2019-11-24 21:00:00 16.7 20 Norte 33 Norte 0 -- -- 77
2019-11-24 20:00:00 16.9 20 Nordeste 35 Nordeste 0 -- -- 76
2019-11-24 19:00:00 17 23 Norte 39 Norte 0 -- -- 75
2019-11-24 18:00:00 17.5 24 Norte 37 Norte 0 -- -- 77
2019-11-24 17:00:00 17.7 27 Norte 38 Norte 0 -- -- 74
2019-11-24 16:00:00 18.6 28 Norte 39 Norte 0 -- -- 69
2019-11-24 15:00:00 18.6 25 Norte 42 Norte 0 -- -- 69
2019-11-24 14:00:00 18.8 28 Norte 43 Norte 0 -- -- 68
2019-11-24 13:00:00 19.1 25 Norte 38 Norte 0 -- -- 68
2019-11-24 12:00:00 18.4 24 Norte 44 Nordeste 0 -- -- 70
2019-11-24 11:00:00 18.7 27 Norte 48 Nordeste 0 -- -- 72
2019-11-24 10:00:00 17.8 28 Norte 46 Nordeste 0 -- -- 77
2019-11-24 09:00:00 17.1 20 Norte 40 Norte 0 -- -- 85
2019-11-24 08:00:00 16.7 16 Norte 30 Norte 0 -- -- 87
2019-11-24 07:00:00 16.7 18 Norte 31 Norte 0 -- -- 87
2019-11-24 06:00:00 16.8 20 Norte 32 Norte 0 -- -- 85
2019-11-24 05:00:00 16.8 19 Norte 29 Norte 0 -- -- 87
2019-11-24 04:00:00 16.6 21 Norte 30 Norte 0 -- -- 88
2019-11-24 03:00:00 16.6 19 Norte 28 Norte 0 -- -- 90
2019-11-24 02:00:00 16.6 17 Norte 32 Norte 0 -- -- 91
2019-11-24 01:00:00 17 14 Norte 26 Norte 0 -- -- 91
2019-11-24 00:00:00 17 15 Norte 30 Norte 0 -- -- 88
2019-11-23 23:00:00 17.3 16 Norte 26 Norte 0 -- -- 89
2019-11-23 22:00:00 17.4 19 Norte 30 Norte 0 -- -- 88
2019-11-23 21:00:00 17.2 14 Norte 30 Norte 0 -- -- 87
2019-11-23 20:00:00 17.5 15 Norte 25 Norte 0 -- -- 88
2019-11-23 19:00:00 17.5 17 Norte 26 Norte 0 -- -- 88
2019-11-23 18:00:00 17.7 18 Norte 28 Norte 0 -- -- 87
2019-11-23 17:00:00 18.3 19 Norte 32 Norte 0 -- -- 86
2019-11-23 16:00:00 18.3 22 Norte 35 Norte 0 -- -- 87
2019-11-23 15:00:00 18 26 Norte 35 Norte 0 -- -- 91
2019-11-23 14:00:00 18.2 18 Norte 34 Norte 0 -- -- 94
2019-11-23 13:00:00 18.5 15 Noroeste 49 Noroeste 0 -- -- 95
2019-11-23 12:00:00 19.5 27 Noroeste 37 Noroeste 0 -- -- 89
2019-11-23 11:00:00 19.5 22 Noroeste 34 Noroeste 0 -- -- 91
2019-11-23 10:00:00 18.8 23 Noroeste 35 Noroeste 0 -- -- 94
2019-11-23 09:00:00 18.5 20 Noroeste 33 Noroeste 0 -- -- 96
2019-11-23 08:00:00 18.4 16 Noroeste 30 Noroeste 0 -- -- 97
2019-11-23 07:00:00 18.3 17 Noroeste 30 Noroeste 0 -- -- 97
2019-11-23 06:00:00 18.3 15 Noroeste 24 Oeste 0 -- -- 96
2019-11-23 05:00:00 18.2 12 Noroeste 18 Oeste 0 -- -- 96
2019-11-23 04:00:00 -- -- -- -- -- -- -- -- --
2019-11-23 03:00:00 17.9 18 Noroeste 28 Noroeste 0 -- -- 96
2019-11-23 02:00:00 18.3 19 Noroeste 31 Noroeste 0 -- -- 96
2019-11-23 01:00:00 18.3 15 Noroeste 23 Noroeste 0 -- -- 95
2019-11-23 00:00:00 18 14 Noroeste 19 Noroeste 0 -- -- 94
2019-11-22 23:00:00 17.8 11 Noroeste 19 Noroeste 0 -- -- 94
2019-11-22 22:00:00 18 11 Noroeste 21 Oeste 0 -- -- 93
2019-11-22 21:00:00 17.8 9 Oeste 26 Oeste 0 -- -- 91
2019-11-22 20:00:00 18.2 13 Oeste 21 Oeste -- -- -- 88
2019-11-22 19:00:00 18.1 14 Noroeste 28 Noroeste 0 -- -- 86
2019-11-22 18:00:00 18.4 19 Noroeste 28 Oeste 0 -- -- 85
2019-11-22 17:00:00 19.4 19 Oeste 26 Noroeste 0 -- -- 77
2019-11-22 16:00:00 19.6 17 Noroeste 27 Oeste 0 -- -- 74
2019-11-22 15:00:00 20.4 17 Noroeste 30 Noroeste 0 -- -- 75
2019-11-22 14:00:00 20.7 20 Oeste 28 Oeste 0 -- -- 71
2019-11-22 13:00:00 19.8 19 Noroeste 28 Noroeste 0 -- -- 79
2019-11-22 12:00:00 19.2 19 Noroeste 28 Noroeste 0 -- -- 83
2019-11-22 11:00:00 19.3 19 Noroeste 25 Noroeste 0 -- -- 86
2019-11-22 10:00:00 18.6 12 Noroeste 23 Noroeste 0 -- -- 90
2019-11-22 09:00:00 17.9 15 Noroeste 29 Noroeste 0 -- -- 94
2019-11-22 08:00:00 17.3 14 Noroeste 31 Noroeste 0 -- -- 95
2019-11-22 07:00:00 17.8 8 Noroeste 17 Noroeste 0 -- -- 96
2019-11-22 06:00:00 17.8 12 Oeste 29 Oeste 0.4 -- -- 95
2019-11-22 05:00:00 17.6 18 Oeste 32 Sudoeste 0.6 -- -- 95
2019-11-22 04:00:00 17.5 18 Sudoeste 26 Sudoeste 0 -- -- 94
2019-11-22 03:00:00 17.3 14 Sudoeste 26 Sudoeste 0 -- -- 94
2019-11-22 02:00:00 17.6 18 Oeste 32 Oeste 0 -- -- 92
2019-11-22 01:00:00 17.9 18 Sudoeste 28 Oeste 0 -- -- 88
2019-11-22 00:00:00 17.6 13 Oeste 26 Oeste 0 -- -- 88
2019-11-21 23:00:00 18 19 Oeste 28 Oeste 0 -- -- 84
2019-11-21 22:00:00 17.8 19 Oeste 29 Oeste 0 -- -- 84
2019-11-21 21:00:00 17.9 19 Oeste 28 Oeste 0 -- -- 83
2019-11-21 20:00:00 -- -- -- -- -- -- -- -- --
2019-11-21 19:00:00 -- -- -- -- -- -- -- -- --
2019-11-21 18:00:00 -- -- -- -- -- -- -- -- --
2019-11-21 17:00:00 -- -- -- -- -- -- -- -- --
2019-11-21 16:00:00 -- -- -- -- -- -- -- -- --
2019-11-21 15:00:00 20.2 23 Oeste 40 Oeste 0 -- -- 63
2019-11-21 14:00:00 20.4 24 Oeste 41 Oeste 0 -- -- 62
2019-11-21 13:00:00 20.4 21 Oeste 33 Oeste 0.2 -- -- 61
2019-11-21 12:00:00 20 21 Oeste 32 Oeste 0 -- -- 64
2019-11-21 11:00:00 19.1 14 Oeste 27 Oeste 0 -- -- 73
2019-11-21 10:00:00 17.8 14 Oeste 22 Oeste 0 -- -- 84
2019-11-21 09:00:00 16.6 5 Oeste 8 Oeste 0 -- -- 91
2019-11-21 08:00:00 15.7 4 Sudoeste 6 Oeste 0 -- -- 93
2019-11-21 07:00:00 -- -- -- -- -- -- -- -- --
2019-11-21 06:00:00 -- -- -- -- -- -- -- -- --
2019-11-21 05:00:00 -- -- -- -- -- -- -- -- --
2019-11-21 04:00:00 -- -- -- -- -- -- -- -- --
2019-11-21 03:00:00 -- -- -- -- -- -- -- -- --
2019-11-21 02:00:00 -- -- -- -- -- -- -- -- --
2019-11-21 01:00:00 -- -- -- -- -- -- -- -- --
2019-11-21 00:00:00 -- -- -- -- -- -- -- -- --
2019-11-20 23:00:00 -- -- -- -- -- -- -- -- --
2019-11-20 22:00:00 -- -- -- -- -- -- -- -- --
2019-11-20 21:00:00 -- -- -- -- -- -- -- -- --
2019-11-20 20:00:00 -- -- -- -- -- -- -- -- --
2019-11-20 19:00:00 17.7 19 Oeste 30 Oeste 0 -- -- 87
2019-11-20 18:00:00 18.2 18 Oeste 32 Oeste 0 -- -- 84
2019-11-20 17:00:00 19.1 22 Oeste 31 Oeste 0 -- -- 75
2019-11-20 16:00:00 -- -- -- -- -- -- -- -- --
2019-11-20 15:00:00 -- -- -- -- -- -- -- -- --
2019-11-20 14:00:00 -- -- -- -- -- -- -- -- --
2019-11-20 13:00:00 -- -- -- -- -- -- -- -- --
2019-11-20 12:00:00 -- -- -- -- -- -- -- -- --
2019-11-20 11:00:00 -- -- -- -- -- -- -- -- --
2019-11-20 10:00:00 -- -- -- -- -- -- -- -- --
2019-11-20 09:00:00 -- -- -- -- -- -- -- -- --
2019-11-20 08:00:00 -- -- -- -- -- -- -- -- --
2019-11-20 07:00:00 -- -- -- -- -- -- -- -- --
2019-11-20 06:00:00 -- -- -- -- -- -- -- -- --
2019-11-20 05:00:00 -- -- -- -- -- -- -- -- --
2019-11-20 04:00:00 -- -- -- -- -- -- -- -- --
2019-11-20 03:00:00 -- -- -- -- -- -- -- -- --
2019-11-20 02:00:00 -- -- -- -- -- -- -- -- --
2019-11-20 01:00:00 -- -- -- -- -- -- -- -- --
2019-11-20 00:00:00 -- -- -- -- -- -- -- -- --
2019-11-19 23:00:00 -- -- -- -- -- -- -- -- --
2019-11-19 22:00:00 -- -- -- -- -- -- -- -- --
2019-11-19 21:00:00 -- -- -- -- -- -- -- -- --
2019-11-19 20:00:00 -- -- -- -- -- -- -- -- --
2019-11-19 19:00:00 -- -- -- -- -- -- -- -- --
2019-11-19 18:00:00 -- -- -- -- -- -- -- -- --
2019-11-19 17:00:00 -- -- -- -- -- -- -- -- --
2019-11-19 16:00:00 -- -- -- -- -- -- -- -- --
2019-11-19 15:00:00 17.9 17 Norte 34 Norte 0 -- -- 74
2019-11-19 14:00:00 18.5 16 Norte 32 Norte 0 -- -- 70
2019-11-19 13:00:00 18.5 18 Norte 31 Norte 0 -- -- 72
2019-11-19 12:00:00 18.1 19 Norte 31 Norte 0 -- -- 75
2019-11-19 11:00:00 17.7 22 Norte 36 Norte 0 -- -- 81
2019-11-19 10:00:00 16.9 20 Norte 33 Norte 0 -- -- 88
2019-11-19 09:00:00 16.6 17 Norte 31 Norte 0 -- -- 91
2019-11-19 08:00:00 16.5 17 Norte 26 Norte 0 -- -- 92
2019-11-19 07:00:00 16.4 21 Norte 33 Norte 0 -- -- 92
2019-11-19 06:00:00 16.2 18 Noroeste 28 Noroeste 0 -- -- 91
2019-11-19 05:00:00 16.4 17 Noroeste 27 Noroeste 0.4 -- -- 93
2019-11-19 04:00:00 16.2 17 Noroeste 23 Noroeste 0 -- -- 94
2019-11-19 03:00:00 16 8 Noroeste 22 Norte 0 -- -- 93
2019-11-19 02:00:00 16.7 11 Noroeste 19 Noroeste 0 -- -- 87
2019-11-19 01:00:00 16.6 12 Noroeste 19 Noroeste 0 -- -- 85
2019-11-19 00:00:00 16.3 9 Norte 22 Noroeste 0 -- -- 84
2019-11-18 23:00:00 16.3 10 Norte 22 Norte 0 -- -- 84
2019-11-18 22:00:00 16.5 11 Norte 21 Norte 0 -- -- 82
2019-11-18 21:00:00 16.7 13 Norte 18 Norte 0 -- -- 83
2019-11-18 20:00:00 16.6 11 Norte 18 Norte 0 -- -- 81
2019-11-18 19:00:00 16.4 10 Norte 18 Norte 0 -- -- 78
2019-11-18 18:00:00 16.8 13 Norte 23 Norte 0 -- -- 75
2019-11-18 17:00:00 17.7 14 Norte 27 Noroeste 0 -- -- 75
2019-11-18 16:00:00 -- -- -- -- -- -- -- -- --
2019-11-18 15:00:00 -- -- -- -- -- -- -- -- --
2019-11-18 14:00:00 -- -- -- -- -- -- -- -- --
2019-11-18 13:00:00 -- -- -- -- -- -- -- -- --
2019-11-18 12:00:00 -- -- -- -- -- -- -- -- --
2019-11-18 11:00:00 18.2 18 Nordeste 31 Nordeste 0 -- -- 66
2019-11-18 10:00:00 17.5 21 Nordeste 30 Nordeste 0 -- -- 69
2019-11-18 09:00:00 15.9 13 Nordeste 23 Nordeste 0 -- -- 78
2019-11-18 08:00:00 14.8 18 Nordeste 30 Nordeste 0 -- -- 82
2019-11-18 07:00:00 14.5 19 Nordeste 27 Nordeste 0 -- -- 82
2019-11-18 06:00:00 14.7 22 Nordeste 36 Nordeste 0 -- -- 80
2019-11-18 05:00:00 14.5 18 Nordeste 32 Nordeste 0 -- -- 80
2019-11-18 04:00:00 14.8 22 Nordeste 36 Nordeste 0 -- -- 78
2019-11-18 03:00:00 14.7 23 Nordeste 38 Nordeste 0 -- -- 78
2019-11-18 02:00:00 14.7 24 Nordeste 39 Nordeste 0 -- -- 78
2019-11-18 01:00:00 14.7 24 Nordeste 37 Nordeste 0 -- -- 77
2019-11-18 00:00:00 14.6 21 Nordeste 43 Nordeste 0 -- -- 76
2019-11-17 23:00:00 14.7 26 Nordeste 42 Nordeste 0 -- -- 76
2019-11-17 22:00:00 14.7 27 Nordeste 43 Nordeste 0 -- -- 73
2019-11-17 21:00:00 14.8 26 Nordeste 44 Nordeste 0 -- -- 72
2019-11-17 20:00:00 14.9 24 Nordeste 39 Nordeste -- -- -- 71
2019-11-17 19:00:00 15 24 Nordeste 38 Nordeste 0 -- -- 69
2019-11-17 18:00:00 15.3 25 Nordeste 37 Nordeste 0 -- -- 68
2019-11-17 17:00:00 16.3 21 Nordeste 35 Nordeste 0 -- -- 61
2019-11-17 16:00:00 17.3 20 Nordeste 37 Nordeste 0 -- -- 58
2019-11-17 15:00:00 17.6 27 Nordeste 44 Nordeste 0 -- -- 55
2019-11-17 14:00:00 17.4 27 Nordeste 42 Este 0 -- -- 60
2019-11-17 13:00:00 17.9 30 Nordeste 44 Nordeste 0 -- -- 59
2019-11-17 12:00:00 17.9 28 Nordeste 47 Nordeste 0 -- -- 57
2019-11-17 11:00:00 17.3 28 Nordeste 49 Nordeste 0 -- -- 60
2019-11-17 10:00:00 16.8 29 Nordeste 43 Nordeste 0 -- -- 64
2019-11-17 09:00:00 16.2 28 Nordeste 35 Nordeste 0 -- -- 69
2019-11-17 08:00:00 14.7 21 Nordeste 35 Nordeste 0 -- -- 78
2019-11-17 07:00:00 14.6 15 Nordeste 40 Nordeste 0 -- -- 69
2019-11-17 06:00:00 15.2 24 Nordeste 49 Nordeste 0 -- -- 65
2019-11-17 05:00:00 14.5 19 Nordeste 49 Nordeste 0 -- -- 79
2019-11-17 04:00:00 15.5 32 Nordeste 53 Nordeste 0 -- -- 63
2019-11-17 03:00:00 15.3 27 Nordeste 47 Nordeste 0 -- -- 72
2019-11-17 02:00:00 15.3 25 Nordeste 55 Nordeste 0 -- -- 66
2019-11-17 01:00:00 15.3 28 Nordeste 62 Nordeste 0 -- -- 70
2019-11-17 00:00:00 15.3 25 Nordeste 42 Nordeste 0 -- -- 71
2019-11-16 23:00:00 15.2 26 Nordeste 60 Nordeste 0 -- -- 69
2019-11-16 22:00:00 15.6 32 Nordeste 54 Nordeste 0 -- -- 73
2019-11-16 21:00:00 15.5 27 Nordeste 51 Nordeste 0 -- -- 67
2019-11-16 20:00:00 15.5 27 Nordeste 53 Nordeste 0 -- -- 71
2019-11-16 19:00:00 15.3 26 Nordeste 46 Norte 0 -- -- 75
2019-11-16 18:00:00 14.9 27 Nordeste 54 Nordeste 0 -- -- 80
2019-11-16 17:00:00 16.1 29 Nordeste 51 Nordeste 0 -- -- 74
2019-11-16 16:00:00 16.6 29 Nordeste 50 Nordeste 0 -- -- 65
2019-11-16 15:00:00 17.1 32 Norte 53 Norte 0 -- -- 67
2019-11-16 14:00:00 17.2 33 Nordeste 60 Norte 0 -- -- 66
2019-11-16 13:00:00 17.5 32 Nordeste 54 Este 0 -- -- 67
2019-11-16 12:00:00 17.2 31 Nordeste 58 Norte 0 -- -- 70
2019-11-16 11:00:00 17.6 30 Norte 46 Norte 0 -- -- 63
2019-11-16 10:00:00 16.9 30 Norte 60 Norte 0 -- -- 65
2019-11-16 09:00:00 15.8 21 Norte 39 Nordeste 0 -- -- 74
2019-11-16 08:00:00 -- -- -- -- -- -- -- -- --
2019-11-16 07:00:00 -- -- -- -- -- -- -- -- --
2019-11-16 06:00:00 -- -- -- -- -- -- -- -- --
2019-11-16 05:00:00 -- -- -- -- -- -- -- -- --
2019-11-16 04:00:00 -- -- -- -- -- -- -- -- --
2019-11-16 03:00:00 -- -- -- -- -- -- -- -- --
2019-11-16 02:00:00 -- -- -- -- -- -- -- -- --
2019-11-16 01:00:00 -- -- -- -- -- -- -- -- --
2019-11-16 00:00:00 -- -- -- -- -- -- -- -- --